createdAt,value
2022-11-19T00:00:12.653Z,72.70
2022-11-19T00:02:40.868Z,73.19
2022-11-19T00:05:09.783Z,73.96
2022-11-19T00:07:39.475Z,73.96
2022-11-19T00:10:08.528Z,73.36
2022-11-19T00:13:05.994Z,73.46
2022-11-19T00:15:36.455Z,74.34
2022-11-19T00:18:06.108Z,74.02
2022-11-19T00:20:36.060Z,73.93
2022-11-19T00:23:05.687Z,74.50
2022-11-19T00:25:34.857Z,73.50
2022-11-19T00:28:03.109Z,74.23
2022-11-19T00:30:47.520Z,73.78
2022-11-19T00:33:16.588Z,74.60
2022-11-19T00:35:45.053Z,74.32
2022-11-19T00:38:14.629Z,74.49
2022-11-19T00:40:43.855Z,74.53
2022-11-19T00:43:29.407Z,73.92
2022-11-19T00:45:57.605Z,74.60
2022-11-19T00:48:25.840Z,74.41
2022-11-19T00:50:54.161Z,74.58
2022-11-19T00:53:23.763Z,74.28
2022-11-19T00:55:52.032Z,74.65
2022-11-19T00:58:20.416Z,74.62
2022-11-19T01:00:49.534Z,75.34
2022-11-19T01:03:17.780Z,75.34
2022-11-19T01:05:47.956Z,75.60
2022-11-19T01:08:16.202Z,75.38
2022-11-19T01:10:46.031Z,75.22
2022-11-19T01:13:31.989Z,74.80
2022-11-19T01:16:00.292Z,75.01
2022-11-19T01:18:29.817Z,75.49
2022-11-19T01:20:58.134Z,74.76
2022-11-19T01:23:27.536Z,74.95
2022-11-19T01:25:57.602Z,75.09
2022-11-19T01:28:25.995Z,75.50
2022-11-19T01:30:54.450Z,75.19
2022-11-19T01:33:23.506Z,75.10
2022-11-19T01:36:02.824Z,74.97
2022-11-19T01:38:31.702Z,75.01
2022-11-19T01:41:02.341Z,74.95
2022-11-19T01:43:46.489Z,75.74
2022-11-19T01:46:17.342Z,75.14
2022-11-19T01:48:51.983Z,75.51
2022-11-19T01:51:26.639Z,75.12
2022-11-19T01:54:00.674Z,75.20
2022-11-19T01:56:33.887Z,75.06
2022-11-19T01:59:07.148Z,75.35
2022-11-19T02:01:35.845Z,75.76
2022-11-19T02:04:06.104Z,75.41
2022-11-19T02:06:35.671Z,76.03
2022-11-19T02:09:03.993Z,75.99
2022-11-19T02:12:21.126Z,75.74
2022-11-19T02:15:07.596Z,75.84
2022-11-19T02:17:59.683Z,75.98
2022-11-19T02:20:52.500Z,75.85
2022-11-19T02:24:25.833Z,76.07
2022-11-19T02:27:51.761Z,76.11
2022-11-19T02:30:22.031Z,76.00
2022-11-19T02:33:00.934Z,76.44
2022-11-19T02:35:42.210Z,76.24
2022-11-19T02:38:23.295Z,76.21
2022-11-19T02:40:58.040Z,76.43
2022-11-19T02:43:34.337Z,76.60
2022-11-19T02:46:10.130Z,76.40
2022-11-19T02:48:43.525Z,76.71
2022-11-19T02:51:15.614Z,76.82
2022-11-19T02:53:43.979Z,76.77
2022-11-19T02:56:17.867Z,76.62
2022-11-19T02:59:10.170Z,76.86
2022-11-19T03:02:00.966Z,76.88
2022-11-19T03:04:36.140Z,77.16
2022-11-19T03:07:09.819Z,77.16
2022-11-19T03:09:43.765Z,77.15
2022-11-19T03:12:23.910Z,77.37
2022-11-19T03:15:16.188Z,77.45
2022-11-19T03:18:04.338Z,77.41
2022-11-19T03:20:37.913Z,77.65
2022-11-19T03:23:12.657Z,77.44
2022-11-19T03:25:46.187Z,77.74
2022-11-19T03:28:17.310Z,77.41
2022-11-19T03:30:48.823Z,77.79
2022-11-19T03:33:25.086Z,77.77
2022-11-19T03:35:57.693Z,77.90
2022-11-19T03:38:32.221Z,77.86
2022-11-19T03:41:04.128Z,77.72
2022-11-19T03:43:37.687Z,78.05
2022-11-19T03:46:10.425Z,77.64
2022-11-19T03:48:42.251Z,78.09
2022-11-19T03:51:16.457Z,77.63
2022-11-19T03:53:45.015Z,78.02
2022-11-19T03:56:16.816Z,77.93
2022-11-19T03:58:47.426Z,78.05
2022-11-19T04:01:16.296Z,77.97
2022-11-19T04:04:07.612Z,78.31
2022-11-19T04:06:36.861Z,78.09
2022-11-19T04:09:05.315Z,77.78
2022-11-19T04:11:33.513Z,78.26
2022-11-19T04:14:01.735Z,77.77
2022-11-19T04:16:29.964Z,78.02
2022-11-19T04:18:59.522Z,78.54
2022-11-19T04:21:27.727Z,78.24
2022-11-19T04:23:56.103Z,78.14
2022-11-19T04:26:24.472Z,78.01
2022-11-19T04:28:53.227Z,78.18
2022-11-19T04:31:21.426Z,78.46
2022-11-19T04:33:50.503Z,78.33
2022-11-19T04:36:20.239Z,78.38
2022-11-19T04:38:48.442Z,78.21
2022-11-19T04:41:16.859Z,78.06
2022-11-19T04:43:45.090Z,78.63
2022-11-19T04:46:13.263Z,78.49
2022-11-19T04:48:41.545Z,78.28
2022-11-19T04:51:09.931Z,78.20
2022-11-19T04:53:39.872Z,78.23
2022-11-19T04:56:08.821Z,78.44
2022-11-19T04:58:37.491Z,78.45
2022-11-19T05:01:06.283Z,78.52
2022-11-19T05:03:34.776Z,78.57
2022-11-19T05:06:03.008Z,78.31
2022-11-19T05:08:31.276Z,78.57
2022-11-19T05:11:00.810Z,78.67
2022-11-19T05:13:29.054Z,78.33
2022-11-19T05:15:57.245Z,78.37
2022-11-19T05:18:25.770Z,78.66
2022-11-19T05:20:54.090Z,78.80
2022-11-19T05:23:22.561Z,78.35
2022-11-19T05:25:50.673Z,78.79
2022-11-19T05:28:32.723Z,78.82
2022-11-19T05:31:07.010Z,78.63
2022-11-19T05:33:35.220Z,78.63
2022-11-19T05:36:03.781Z,78.47
2022-11-19T05:38:32.021Z,78.61
2022-11-19T05:41:00.167Z,78.59
2022-11-19T05:43:29.854Z,78.28
2022-11-19T05:46:01.344Z,78.45
2022-11-19T05:48:29.595Z,79.01
2022-11-19T05:50:57.934Z,78.32
2022-11-19T05:53:26.190Z,78.55
2022-11-19T05:55:54.644Z,79.03
2022-11-19T05:58:23.038Z,78.94
2022-11-19T06:00:56.173Z,78.76
2022-11-19T06:03:24.344Z,78.82
2022-11-19T06:05:53.195Z,78.52
2022-11-19T06:08:21.526Z,78.75
2022-11-19T06:10:49.806Z,79.01
2022-11-19T06:13:18.143Z,78.77
2022-11-19T06:15:46.348Z,79.03
2022-11-19T06:18:16.143Z,79.51
2022-11-19T06:20:44.332Z,78.65
2022-11-19T06:23:12.573Z,78.48
2022-11-19T06:25:41.301Z,79.34
2022-11-19T06:28:09.513Z,78.75
2022-11-19T06:30:37.714Z,79.00
2022-11-19T06:33:05.863Z,78.86
2022-11-19T06:35:35.379Z,79.04
2022-11-19T06:38:03.615Z,78.84
2022-11-19T06:40:31.750Z,78.83
2022-11-19T06:42:59.977Z,78.75
2022-11-19T06:45:28.279Z,78.62
2022-11-19T06:47:56.434Z,78.77
2022-11-19T06:50:24.659Z,79.44
2022-11-19T06:52:54.281Z,79.20
2022-11-19T06:55:22.492Z,79.42
2022-11-19T06:57:50.987Z,78.90
2022-11-19T07:00:19.912Z,78.86
2022-11-19T07:02:48.596Z,78.91
2022-11-19T07:05:16.977Z,79.38
2022-11-19T07:07:45.251Z,79.08
2022-11-19T07:10:14.867Z,79.21
2022-11-19T07:12:43.095Z,78.68
2022-11-19T07:15:12.418Z,78.53
2022-11-19T07:17:42.303Z,78.95
2022-11-19T07:20:12.190Z,78.51
2022-11-19T07:22:42.446Z,79.03
2022-11-19T07:25:12.965Z,78.95
2022-11-19T07:27:46.597Z,79.13
2022-11-19T07:30:15.878Z,78.99
2022-11-19T07:32:44.443Z,79.01
2022-11-19T07:35:12.965Z,78.91
2022-11-19T07:37:41.164Z,78.49
2022-11-19T07:40:11.502Z,79.37
2022-11-19T07:42:50.929Z,79.24
2022-11-19T07:45:23.273Z,78.95
2022-11-19T07:47:52.004Z,78.79
2022-11-19T07:50:20.393Z,78.95
2022-11-19T07:52:48.608Z,78.96
2022-11-19T07:55:17.076Z,79.02
2022-11-19T07:57:48.027Z,78.56
2022-11-19T08:00:17.036Z,78.71
2022-11-19T08:02:46.802Z,78.60
2022-11-19T08:05:15.125Z,78.95
2022-11-19T08:07:43.644Z,79.22
2022-11-19T08:10:12.568Z,79.17
2022-11-19T08:12:40.812Z,79.03
2022-11-19T08:15:10.751Z,78.58
2022-11-19T08:17:56.745Z,78.83
2022-11-19T08:20:27.865Z,78.71
2022-11-19T08:22:56.034Z,78.52
2022-11-19T08:25:24.291Z,78.84
2022-11-19T08:27:52.545Z,78.83
2022-11-19T08:30:20.778Z,78.90
2022-11-19T08:32:49.084Z,78.58
2022-11-19T08:35:17.604Z,78.79
2022-11-19T08:37:48.400Z,78.55
2022-11-19T08:40:17.380Z,78.65
2022-11-19T08:42:59.904Z,78.55
2022-11-19T08:45:30.522Z,78.63
2022-11-19T08:48:00.606Z,78.62
2022-11-19T08:50:29.447Z,78.50
2022-11-19T08:53:02.100Z,78.55
2022-11-19T08:55:31.741Z,78.71
2022-11-19T08:58:04.386Z,78.19
2022-11-19T09:00:35.148Z,78.65
2022-11-19T09:03:03.473Z,78.31
2022-11-19T09:05:32.386Z,77.97
2022-11-19T09:08:02.379Z,78.03
2022-11-19T09:10:30.545Z,78.53
2022-11-19T09:12:58.798Z,78.01
2022-11-19T09:15:27.183Z,78.27
2022-11-19T09:17:55.479Z,77.86
2022-11-19T09:20:26.540Z,77.98
2022-11-19T09:22:54.859Z,77.94
2022-11-19T09:25:24.406Z,78.06
2022-11-19T09:27:52.617Z,77.97
2022-11-19T09:30:21.292Z,77.69
2022-11-19T09:32:49.549Z,77.88
2022-11-19T09:35:17.968Z,77.90
2022-11-19T09:37:46.320Z,77.56
2022-11-19T09:40:20.781Z,76.97
2022-11-19T09:43:03.664Z,77.34
2022-11-19T09:45:51.240Z,77.16
2022-11-19T09:48:32.592Z,77.11
2022-11-19T09:51:05.145Z,76.90
2022-11-19T09:53:39.782Z,76.84
2022-11-19T09:56:10.014Z,76.67
2022-11-19T09:58:43.571Z,76.79
2022-11-19T10:01:15.292Z,76.71
2022-11-19T10:03:49.177Z,76.51
2022-11-19T10:06:31.165Z,76.39
2022-11-19T10:09:25.606Z,76.52
2022-11-19T10:12:09.144Z,76.74
2022-11-19T10:15:10.740Z,76.10
2022-11-19T10:17:52.007Z,76.19
2022-11-19T10:20:45.454Z,76.53
2022-11-19T10:23:19.078Z,75.88
2022-11-19T10:25:49.854Z,75.40
2022-11-19T10:28:22.889Z,75.66
2022-11-19T10:31:00.190Z,75.64
2022-11-19T10:33:35.077Z,75.76
2022-11-19T10:36:07.900Z,75.66
2022-11-19T10:38:47.252Z,75.54
2022-11-19T10:41:24.550Z,75.51
2022-11-19T10:44:00.699Z,75.37
2022-11-19T10:46:30.480Z,75.40
2022-11-19T10:49:00.447Z,75.22
2022-11-19T10:51:31.674Z,75.78
2022-11-19T10:54:02.602Z,74.89
2022-11-19T10:56:39.538Z,74.57
2022-11-19T10:59:14.098Z,74.87
2022-11-19T11:01:46.682Z,75.15
2022-11-19T11:04:20.218Z,74.71
2022-11-19T11:06:54.354Z,74.84
2022-11-19T11:09:34.391Z,74.32
2022-11-19T11:12:32.792Z,74.42
2022-11-19T11:15:09.611Z,74.30
2022-11-19T11:17:39.857Z,74.50
2022-11-19T11:20:24.271Z,75.03
2022-11-19T11:23:05.712Z,74.17
2022-11-19T11:25:34.096Z,74.75
2022-11-19T11:28:08.308Z,73.85
2022-11-19T11:30:36.659Z,74.71
2022-11-19T11:36:03.618Z,74.03
2022-11-19T11:38:32.258Z,73.88
2022-11-19T11:44:04.648Z,73.62
2022-11-19T11:46:43.350Z,73.16
2022-11-19T11:49:27.674Z,73.54
2022-11-19T11:52:20.930Z,74.21
2022-11-19T11:54:58.419Z,73.76
2022-11-19T11:57:28.955Z,72.88
2022-11-19T11:59:58.040Z,73.65
2022-11-19T12:02:31.068Z,73.42
2022-11-19T12:05:02.644Z,73.12
2022-11-19T12:08:05.805Z,73.82
2022-11-19T12:10:46.680Z,73.76
2022-11-19T12:13:55.205Z,72.76
2022-11-19T12:16:40.135Z,73.48
2022-11-19T12:19:26.146Z,72.35
2022-11-19T12:22:04.862Z,72.45
2022-11-19T12:24:57.816Z,72.58
2022-11-19T12:27:36.413Z,71.99
2022-11-19T12:30:10.474Z,72.95
2022-11-19T12:33:20.647Z,72.12
2022-11-19T12:35:58.425Z,72.06
2022-11-19T12:38:42.476Z,71.70
2022-11-19T12:41:50.193Z,72.13
2022-11-19T12:44:30.736Z,72.47
2022-11-19T12:47:08.672Z,72.59
2022-11-19T12:50:16.585Z,72.11
2022-11-19T12:53:22.406Z,71.83
2022-11-19T12:56:04.504Z,71.04
2022-11-19T12:58:45.560Z,70.79
2022-11-19T13:01:19.175Z,69.53
2022-11-19T13:04:03.856Z,69.05
2022-11-19T13:06:39.856Z,68.18
2022-11-19T13:09:17.078Z,67.65
2022-11-19T13:11:51.447Z,66.56
2022-11-19T13:14:29.538Z,66.09
2022-11-19T13:17:00.181Z,66.54
2022-11-19T13:19:32.862Z,67.01
2022-11-19T13:22:08.196Z,67.38
2022-11-19T13:24:42.719Z,67.10
2022-11-19T13:27:20.185Z,67.17
2022-11-19T13:29:57.329Z,66.68
2022-11-19T13:32:32.518Z,66.70
2022-11-19T13:35:12.970Z,66.92
2022-11-19T13:37:55.311Z,66.78
2022-11-19T13:40:32.291Z,67.54
2022-11-19T13:43:31.733Z,67.58
2022-11-19T13:46:16.977Z,66.99
2022-11-19T13:48:50.394Z,67.15
2022-11-19T13:51:28.766Z,67.20
2022-11-19T13:54:03.079Z,66.97
2022-11-19T13:56:47.471Z,68.32
2022-11-19T13:59:34.830Z,67.89
2022-11-19T14:02:58.241Z,67.78
2022-11-19T14:06:06.929Z,68.11
2022-11-19T14:08:55.108Z,69.19
2022-11-19T14:11:57.301Z,69.20
2022-11-19T14:15:14.035Z,68.41
2022-11-19T14:18:09.079Z,69.34
2022-11-19T14:20:57.939Z,69.83
2022-11-19T14:24:04.456Z,68.86
2022-11-19T14:27:19.619Z,69.97
2022-11-19T14:30:01.001Z,69.33
2022-11-19T14:32:43.955Z,69.73
2022-11-19T14:35:40.603Z,69.68
2022-11-19T14:38:32.578Z,69.54
2022-11-19T14:41:28.823Z,70.64
2022-11-19T14:44:35.860Z,70.96
2022-11-19T14:47:35.047Z,71.45
2022-11-19T14:50:06.891Z,70.97
2022-11-19T14:52:40.779Z,71.57
2022-11-19T14:55:24.822Z,71.76
2022-11-19T14:58:00.055Z,71.47
2022-11-19T15:00:32.636Z,72.04
2022-11-19T15:03:02.442Z,72.65
2022-11-19T15:05:34.330Z,71.92
2022-11-19T15:08:47.375Z,72.40
2022-11-19T15:11:17.118Z,73.25
2022-11-19T15:13:47.173Z,72.48
2022-11-19T15:16:17.950Z,73.27
2022-11-19T15:19:19.734Z,72.96
2022-11-19T15:22:23.917Z,73.23
2022-11-19T15:25:26.405Z,73.33
2022-11-19T15:28:21.086Z,73.29
2022-11-19T15:31:21.480Z,73.15
2022-11-19T15:34:19.746Z,74.09
2022-11-19T15:36:51.570Z,74.55
2022-11-19T15:39:26.293Z,74.34
2022-11-19T15:42:02.532Z,74.73
2022-11-19T15:44:40.133Z,74.40
2022-11-19T15:47:15.862Z,74.79
2022-11-19T15:49:45.860Z,74.72
2022-11-19T15:52:22.690Z,75.58
2022-11-19T15:54:52.970Z,75.67
2022-11-19T15:57:27.349Z,75.54
2022-11-19T16:00:00.929Z,75.39
2022-11-19T16:02:37.351Z,76.03
2022-11-19T16:05:09.795Z,76.22
2022-11-19T16:07:38.337Z,76.64
2022-11-19T16:10:13.990Z,76.75
2022-11-19T16:13:11.652Z,76.39
2022-11-19T16:16:05.584Z,76.55
2022-11-19T16:18:34.878Z,77.02
2022-11-19T16:21:03.114Z,77.23
2022-11-19T16:23:52.394Z,77.40
2022-11-19T16:26:20.606Z,77.46
2022-11-19T16:28:50.222Z,77.56
2022-11-19T16:31:18.439Z,77.59
2022-11-19T16:33:54.475Z,77.84
2022-11-19T16:36:22.629Z,77.89
2022-11-19T16:38:53.137Z,78.00
2022-11-19T16:41:41.616Z,78.12
2022-11-19T16:44:15.561Z,78.31
2022-11-19T16:46:45.486Z,78.46
2022-11-19T16:49:32.224Z,78.57
2022-11-19T16:52:02.921Z,78.69
2022-11-19T16:54:51.642Z,78.88
2022-11-19T16:57:23.279Z,78.97
2022-11-19T16:59:56.062Z,79.14
2022-11-19T17:02:30.419Z,78.98
2022-11-19T17:05:08.500Z,79.54
2022-11-19T17:07:37.903Z,79.53
2022-11-19T17:10:30.466Z,79.38
2022-11-19T17:13:03.989Z,79.38
2022-11-19T17:15:39.606Z,79.52
2022-11-19T17:18:17.996Z,79.66
2022-11-19T17:20:56.819Z,79.80
2022-11-19T17:23:26.905Z,80.30
2022-11-19T17:25:58.363Z,80.00
2022-11-19T17:28:38.039Z,79.91
2022-11-19T17:31:17.102Z,80.10
2022-11-19T17:33:56.848Z,80.39
2022-11-19T17:36:27.660Z,80.20
2022-11-19T17:38:56.302Z,80.38
2022-11-19T17:41:45.314Z,80.52
2022-11-19T17:44:35.665Z,80.88
2022-11-19T17:47:21.389Z,80.95
2022-11-19T17:49:50.947Z,80.95
2022-11-19T17:52:24.345Z,81.45
2022-11-19T17:54:54.756Z,81.39
2022-11-19T17:57:23.071Z,81.51
2022-11-19T17:59:51.292Z,81.83
2022-11-19T18:02:23.499Z,81.88
2022-11-19T18:04:51.986Z,81.72
2022-11-19T18:07:21.319Z,82.15
2022-11-19T18:09:50.133Z,82.07
2022-11-19T18:12:20.590Z,82.28
2022-11-19T18:14:53.567Z,82.72
2022-11-19T18:17:27.483Z,82.66
2022-11-19T18:19:56.022Z,82.38
2022-11-19T18:22:24.529Z,82.15
2022-11-19T18:24:53.207Z,82.77
2022-11-19T18:27:22.547Z,82.18
2022-11-19T18:29:50.898Z,82.60
2022-11-19T18:32:19.382Z,82.93
2022-11-19T18:34:48.932Z,82.67
2022-11-19T18:37:17.208Z,82.84
2022-11-19T18:39:45.423Z,83.11
2022-11-19T18:42:13.623Z,82.77
2022-11-19T18:44:43.470Z,83.24
2022-11-19T18:47:14.618Z,82.91
2022-11-19T18:49:43.228Z,83.46
2022-11-19T18:52:15.625Z,83.45
2022-11-19T18:54:44.295Z,83.23
2022-11-19T18:57:13.787Z,83.46
2022-11-19T18:59:42.388Z,83.05
2022-11-19T19:02:11.970Z,83.40
2022-11-19T19:04:40.148Z,83.51
2022-11-19T19:07:08.433Z,83.73
2022-11-19T19:09:41.234Z,83.97
2022-11-19T19:12:19.595Z,83.88
2022-11-19T19:14:51.549Z,83.43
2022-11-19T19:17:20.585Z,83.37
2022-11-19T19:19:49.785Z,83.75
2022-11-19T19:22:18.539Z,84.30
2022-11-19T19:24:50.722Z,84.03
2022-11-19T19:27:22.138Z,83.72
2022-11-19T19:29:50.394Z,84.29
2022-11-19T19:32:18.905Z,83.73
2022-11-19T19:34:47.160Z,84.11
2022-11-19T19:37:15.732Z,83.94
2022-11-19T19:39:44.067Z,84.35
2022-11-19T19:42:13.743Z,84.12
2022-11-19T19:44:42.013Z,84.51
2022-11-19T19:47:10.309Z,84.70
2022-11-19T19:49:39.165Z,84.40
2022-11-19T19:52:07.624Z,84.62
2022-11-19T19:54:36.037Z,84.45
2022-11-19T19:57:04.570Z,84.86
2022-11-19T19:59:34.712Z,84.71
2022-11-19T20:02:03.233Z,84.56
2022-11-19T20:04:33.291Z,84.67
2022-11-19T20:07:01.534Z,84.64
2022-11-19T20:09:30.150Z,84.62
2022-11-19T20:11:59.614Z,84.70
2022-11-19T20:14:27.869Z,84.75
2022-11-19T20:16:57.483Z,84.94
2022-11-19T20:19:25.928Z,85.18
2022-11-19T20:21:54.539Z,84.85
2022-11-19T20:24:22.682Z,85.21
2022-11-19T20:26:50.964Z,84.91
2022-11-19T20:29:21.507Z,85.18
2022-11-19T20:31:51.679Z,85.44
2022-11-19T20:34:21.345Z,85.12
2022-11-19T20:36:49.871Z,85.53
2022-11-19T20:39:18.364Z,85.34
2022-11-19T20:42:04.155Z,85.70
2022-11-19T20:44:32.568Z,85.76
2022-11-19T20:47:03.106Z,85.79
2022-11-19T20:49:35.385Z,85.84
2022-11-19T20:52:04.465Z,85.08
2022-11-19T20:54:33.575Z,85.85
2022-11-19T20:57:02.506Z,85.70
2022-11-19T20:59:30.735Z,85.35
2022-11-19T21:01:58.997Z,85.88
2022-11-19T21:04:28.541Z,86.72
2022-11-19T21:06:58.223Z,86.13
2022-11-19T21:09:28.555Z,85.83
2022-11-19T21:11:57.061Z,86.67
2022-11-19T21:14:25.429Z,86.30
2022-11-19T21:16:53.608Z,86.26
2022-11-19T21:19:21.955Z,86.35
2022-11-19T21:21:50.430Z,86.47
2022-11-19T21:24:20.065Z,86.09
2022-11-19T21:26:48.607Z,86.09
2022-11-19T21:29:17.063Z,86.17
2022-11-19T21:31:47.275Z,85.98
2022-11-19T21:34:18.125Z,85.79
2022-11-19T21:36:48.238Z,86.10
2022-11-19T21:39:19.876Z,86.06
2022-11-19T21:41:48.700Z,86.07
2022-11-19T21:44:21.362Z,86.03
2022-11-19T21:46:50.213Z,86.14
2022-11-19T21:49:18.928Z,86.19
2022-11-19T21:51:47.437Z,86.33
2022-11-19T21:54:15.749Z,85.64
2022-11-19T21:56:45.645Z,86.18
2022-11-19T21:59:14.429Z,86.26
2022-11-19T22:01:42.639Z,85.87
2022-11-19T22:04:13.654Z,86.36
2022-11-19T22:06:42.239Z,86.00
2022-11-19T22:09:10.483Z,86.08
2022-11-19T22:11:38.602Z,86.21
2022-11-19T22:14:10.664Z,86.28
2022-11-19T22:16:41.077Z,85.87
2022-11-19T22:19:09.321Z,86.28
2022-11-19T22:21:40.010Z,86.04
2022-11-19T22:24:08.399Z,86.30
2022-11-19T22:26:36.662Z,86.55
2022-11-19T22:29:04.933Z,86.25
2022-11-19T22:31:34.602Z,86.51
2022-11-19T22:34:03.125Z,86.62
2022-11-19T22:36:33.256Z,86.85
2022-11-19T22:39:01.699Z,86.67
2022-11-19T22:41:31.106Z,87.60
2022-11-19T22:43:59.850Z,87.01
2022-11-19T22:46:29.141Z,87.03
2022-11-19T22:48:58.892Z,87.02
2022-11-19T22:51:27.654Z,86.81
2022-11-19T22:53:56.583Z,86.80
2022-11-19T22:56:29.577Z,86.76
2022-11-19T22:58:59.889Z,86.84
2022-11-19T23:01:31.883Z,87.02
2022-11-19T23:04:05.884Z,86.62
2022-11-19T23:06:34.351Z,86.54
2022-11-19T23:09:03.968Z,86.79
2022-11-19T23:11:49.649Z,86.33
2022-11-19T23:14:20.010Z,86.99
2022-11-19T23:16:48.175Z,86.75
2022-11-19T23:19:19.506Z,86.71
2022-11-19T23:21:48.527Z,86.83
2022-11-19T23:24:17.350Z,86.63
2022-11-19T23:26:45.664Z,86.76
2022-11-19T23:29:13.843Z,86.90
2022-11-19T23:31:42.334Z,86.58
2022-11-19T23:34:10.526Z,86.80
2022-11-19T23:36:42.508Z,86.19
2022-11-19T23:39:19.331Z,86.89
2022-11-19T23:41:49.571Z,87.23
2022-11-19T23:44:17.843Z,87.32
2022-11-19T23:46:46.033Z,87.04
2022-11-19T23:49:14.184Z,86.61
2022-11-19T23:51:43.844Z,86.66
2022-11-19T23:54:14.314Z,86.50
2022-11-19T23:56:42.583Z,87.09
2022-11-19T23:59:10.903Z,87.21
